Time;durP1;ratioP1;P1;durP2;ratioP2;P2;SDS_P1;SDS_P2;PMS_P1;PMS_P2;Temp;Humidity;BMP_temperature;BMP_pressure;BME280_temperature;BME280_humidity;BME280_pressure;Samples;Min_cycle;Max_cycle;Signal;HPM_P1;HPM_P2
2023/08/28 00:01:32;;;;;;;8.57;7.78;;;13.00;99.90;;;;;;5050349;28;20045;-53
2023/08/28 00:03:57;;;;;;;7.75;6.97;;;13.00;99.90;;;;;;5049639;28;20075;-51
2023/08/28 00:06:23;;;;;;;8.25;6.47;;;13.00;99.90;;;;;;5047510;28;20048;-51
2023/08/28 00:08:48;;;;;;;8.48;5.82;;;13.00;99.90;;;;;;5049104;28;20128;-51
2023/08/28 00:11:14;;;;;;;9.63;6.25;;;13.00;99.90;;;;;;5050333;28;20037;-53
2023/08/28 00:13:39;;;;;;;8.55;6.47;;;13.00;99.90;;;;;;5049744;28;20103;-50
2023/08/28 00:16:05;;;;;;;7.35;6.65;;;13.00;99.90;;;;;;5032160;28;20119;-51
2023/08/28 00:18:31;;;;;;;7.00;6.22;;;13.00;99.90;;;;;;5049768;28;20494;-53
2023/08/28 00:20:56;;;;;;;9.30;6.90;;;13.00;99.90;;;;;;5049398;28;20041;-50
2023/08/28 00:23:22;;;;;;;6.75;6.10;;;13.00;99.90;;;;;;5050143;28;20102;-50
2023/08/28 00:25:47;;;;;;;8.45;7.15;;;13.00;99.90;;;;;;5046164;28;20041;-51
2023/08/28 00:28:13;;;;;;;8.67;7.43;;;13.00;99.90;;;;;;5049545;28;20047;-52
2023/08/28 00:30:38;;;;;;;9.32;6.05;;;13.00;99.90;;;;;;5049154;28;20321;-50
2023/08/28 00:33:04;;;;;;;6.72;5.68;;;13.00;99.90;;;;;;5049372;28;20409;-51
2023/08/28 00:35:30;;;;;;;8.45;5.90;;;13.00;99.90;;;;;;5049369;28;20040;-52
2023/08/28 00:37:55;;;;;;;8.38;6.40;;;13.00;99.90;;;;;;5049144;28;20094;-53
2023/08/28 00:40:21;;;;;;;9.90;6.77;;;13.00;99.90;;;;;;5049215;28;20374;-51
2023/08/28 00:42:46;;;;;;;8.73;6.28;;;13.00;99.90;;;;;;5049635;28;20292;-51
2023/08/28 00:45:12;;;;;;;10.40;6.63;;;12.90;99.90;;;;;;5048814;28;20041;-53
2023/08/28 00:47:39;;;;;;;7.35;5.90;;;12.90;99.90;;;;;;5043686;28;20041;-51
2023/08/28 00:50:05;;;;;;;7.28;6.03;;;12.90;99.90;;;;;;5046606;28;20162;-53
2023/08/28 00:52:31;;;;;;;6.35;5.75;;;12.90;99.90;;;;;;5048242;28;20044;-52
2023/08/28 00:54:56;;;;;;;7.05;5.68;;;12.90;99.90;;;;;;5048930;28;20037;-52
2023/08/28 00:57:23;;;;;;;8.63;5.43;;;12.80;99.90;;;;;;5048023;28;20028;-53
2023/08/28 00:59:49;;;;;;;7.53;5.65;;;12.80;99.90;;;;;;5047951;28;20090;-51
2023/08/28 01:02:15;;;;;;;6.95;6.35;;;12.80;99.90;;;;;;5049187;28;20115;-50
2023/08/28 01:04:40;;;;;;;7.05;6.35;;;12.80;99.90;;;;;;5047103;28;20037;-50
2023/08/28 01:07:21;;;;;;;6.97;6.28;;;12.80;99.90;;;;;;5048027;28;20025;-51
2023/08/28 01:09:56;;;;;;;7.82;5.82;;;12.70;99.90;;;;;;5044922;28;20513;-50
2023/08/28 01:12:53;;;;;;;7.18;5.95;;;12.70;99.90;;;;;;5049331;28;20165;-51
2023/08/28 01:15:24;;;;;;;9.30;7.43;;;12.60;99.90;;;;;;5041127;28;20124;-52
2023/08/28 01:18:00;;;;;;;8.13;7.28;;;12.60;99.90;;;;;;5048869;28;20391;-53
2023/08/28 01:20:28;;;;;;;9.65;8.73;;;12.60;99.90;;;;;;5045918;28;20044;-51
2023/08/28 01:22:57;;;;;;;12.40;10.07;;;12.50;99.90;;;;;;5031159;28;20134;-53
2023/08/28 01:25:24;;;;;;;11.68;9.88;;;12.40;99.90;;;;;;5047953;28;20051;-51
2023/08/28 01:27:51;;;;;;;18.00;11.52;;;12.40;99.90;;;;;;5048790;28;20062;-51
2023/08/28 01:30:17;;;;;;;14.43;11.05;;;12.40;99.90;;;;;;5047970;28;20036;-51
2023/08/28 01:32:45;;;;;;;14.00;12.52;;;12.50;99.90;;;;;;5048268;28;20391;-52
2023/08/28 01:35:17;;;;;;;14.73;13.02;;;12.50;99.90;;;;;;5048513;28;20029;-50
2023/08/28 01:37:49;;;;;;;18.40;13.85;;;12.50;99.90;;;;;;5048446;28;20037;-51
2023/08/28 01:40:17;;;;;;;15.40;13.00;;;12.50;99.90;;;;;;5048110;28;20044;-52
2023/08/28 01:42:46;;;;;;;14.43;12.90;;;12.50;99.90;;;;;;5048678;28;20040;-52
2023/08/28 01:45:14;;;;;;;13.95;12.65;;;12.50;99.90;;;;;;5047469;28;20080;-50
2023/08/28 01:47:40;;;;;;;14.63;13.27;;;12.50;99.90;;;;;;5048876;28;20047;-52
2023/08/28 01:50:05;;;;;;;15.98;12.75;;;12.50;99.90;;;;;;5047881;28;20045;-50
2023/08/28 01:52:31;;;;;;;20.77;13.55;;;12.50;99.90;;;;;;5048207;28;20502;-50
2023/08/28 01:54:57;;;;;;;14.18;12.70;;;12.50;99.90;;;;;;5047582;28;20029;-52
2023/08/28 01:57:22;;;;;;;19.60;14.43;;;12.50;99.90;;;;;;5048256;28;20028;-52
2023/08/28 01:59:48;;;;;;;16.65;13.63;;;12.50;99.90;;;;;;5047602;28;20103;-51
2023/08/28 02:02:13;;;;;;;15.20;13.60;;;12.50;99.90;;;;;;5048546;28;20028;-50
2023/08/28 02:04:39;;;;;;;15.20;13.60;;;12.50;99.90;;;;;;5048037;28;20037;-50
2023/08/28 02:07:04;;;;;;;15.07;12.77;;;12.50;99.90;;;;;;5047865;28;20033;-56
2023/08/28 02:09:30;;;;;;;16.05;13.40;;;12.50;99.90;;;;;;5047660;28;20291;-52
2023/08/28 02:11:55;;;;;;;14.05;12.40;;;12.50;99.90;;;;;;5048554;28;20504;-50
2023/08/28 02:14:21;;;;;;;13.50;12.13;;;12.50;99.90;;;;;;5047954;28;20044;-51
2023/08/28 02:16:47;;;;;;;13.47;12.20;;;12.40;99.90;;;;;;5048238;28;20799;-52
2023/08/28 02:19:12;;;;;;;12.35;10.32;;;12.50;99.90;;;;;;5050818;28;20279;-51
2023/08/28 02:21:38;;;;;;;14.77;11.85;;;12.40;99.90;;;;;;5051779;28;20406;-50
2023/08/28 02:24:03;;;;;;;12.75;11.38;;;12.40;99.90;;;;;;5051712;28;20033;-51
2023/08/28 02:26:29;;;;;;;10.20;9.23;;;12.40;99.90;;;;;;5051435;28;20043;-54
2023/08/28 02:28:54;;;;;;;10.83;9.70;;;12.30;99.90;;;;;;5050076;28;20037;-54
2023/08/28 02:31:20;;;;;;;13.32;11.93;;;12.30;99.90;;;;;;5032582;28;20360;-50
2023/08/28 02:33:46;;;;;;;11.52;10.35;;;12.30;99.90;;;;;;5048851;28;20033;-51
2023/08/28 02:36:13;;;;;;;12.80;11.07;;;12.30;99.90;;;;;;5049532;28;20082;-51
2023/08/28 02:38:38;;;;;;;11.88;10.68;;;12.30;99.90;;;;;;5049183;28;20104;-51
2023/08/28 02:41:06;;;;;;;13.45;10.65;;;12.20;99.90;;;;;;5049732;28;20584;-52
2023/08/28 02:43:32;;;;;;;15.07;12.68;;;12.10;99.90;;;;;;5048672;28;20040;-55
2023/08/28 02:45:58;;;;;;;15.85;14.07;;;12.00;99.90;;;;;;5050038;28;21323;-52
2023/08/28 02:48:23;;;;;;;19.98;15.48;;;12.00;99.90;;;;;;5051418;28;20037;-51
2023/08/28 02:50:50;;;;;;;19.77;15.52;;;12.10;99.90;;;;;;5050566;28;20076;-51
2023/08/28 02:53:15;;;;;;;;;;;12.10;99.90;;;;;;5052203;28;20163;-54
2023/08/28 02:55:41;;;;;;;16.75;13.35;;;12.10;99.90;;;;;;5051957;28;20015;-52
2023/08/28 02:58:08;;;;;;;17.60;15.45;;;12.10;99.90;;;;;;5051226;28;20036;-51
2023/08/28 03:00:35;;;;;;;17.20;12.93;;;12.20;99.90;;;;;;5050996;28;20083;-52
2023/08/28 03:03:01;;;;;;;15.98;13.15;;;12.20;99.90;;;;;;5051450;28;20068;-51
2023/08/28 03:05:27;;;;;;;13.40;11.40;;;12.20;99.90;;;;;;5050622;28;20522;-50
2023/08/28 03:07:53;;;;;;;13.23;11.93;;;12.20;99.90;;;;;;5051541;28;20048;-51
2023/08/28 03:10:18;;;;;;;14.43;11.30;;;12.10;99.90;;;;;;5051159;28;20482;-51
2023/08/28 03:12:44;;;;;;;14.33;11.70;;;12.20;99.90;;;;;;5051181;28;20033;-51
2023/08/28 03:15:10;;;;;;;12.73;11.53;;;12.10;99.90;;;;;;5050943;28;20283;-52
2023/08/28 03:17:35;;;;;;;18.25;11.35;;;12.20;99.90;;;;;;5050867;28;20275;-51
2023/08/28 03:20:01;;;;;;;12.13;10.93;;;12.20;99.90;;;;;;5050297;28;20350;-52
2023/08/28 03:22:26;;;;;;;16.90;11.63;;;12.10;99.90;;;;;;5051368;28;20044;-51
2023/08/28 03:24:52;;;;;;;14.68;11.07;;;12.10;99.90;;;;;;5050705;28;20403;-51
2023/08/28 03:27:19;;;;;;;11.40;10.13;;;12.10;99.90;;;;;;5050774;28;20047;-53
2023/08/28 03:29:45;;;;;;;12.25;10.63;;;12.10;99.90;;;;;;5050091;28;20124;-50
2023/08/28 03:32:13;;;;;;;11.27;9.68;;;12.10;99.90;;;;;;5050992;28;20108;-51
2023/08/28 03:34:39;;;;;;;14.48;11.35;;;12.10;99.90;;;;;;5050735;28;20041;-53
2023/08/28 03:37:05;;;;;;;15.65;10.82;;;12.20;99.90;;;;;;5050696;28;20033;-54
2023/08/28 03:39:30;;;;;;;10.48;9.48;;;12.10;99.90;;;;;;5050164;28;20087;-51
2023/08/28 03:41:56;;;;;;;10.48;9.52;;;12.10;99.90;;;;;;5051043;28;20111;-55
2023/08/28 03:44:22;;;;;;;9.77;8.80;;;12.10;99.90;;;;;;5050687;28;20429;-50
2023/08/28 03:46:47;;;;;;;;;;;12.00;99.90;;;;;;5051174;28;20040;-50
2023/08/28 03:49:13;;;;;;;10.93;9.50;;;12.00;99.90;;;;;;5049525;28;20120;-54
2023/08/28 03:51:39;;;;;;;10.88;9.77;;;12.00;99.90;;;;;;5050846;28;20041;-51
2023/08/28 03:54:10;;;;;;;12.23;10.85;;;11.90;99.90;;;;;;5050495;28;20036;-51
2023/08/28 03:56:36;;;;;;;14.65;10.20;;;11.90;99.90;;;;;;5050484;28;20121;-54
2023/08/28 03:59:01;;;;;;;13.90;12.50;;;11.90;99.90;;;;;;5049800;28;20179;-50
2023/08/28 04:01:27;;;;;;;13.38;11.40;;;11.90;99.90;;;;;;5050140;28;20283;-55
2023/08/28 04:03:53;;;;;;;13.13;11.82;;;11.90;99.90;;;;;;5049619;28;20060;-50
2023/08/28 04:06:18;;;;;;;14.17;11.00;;;11.90;99.90;;;;;;5032320;28;20040;-52
2023/08/28 04:08:44;;;;;;;13.27;11.40;;;12.00;99.90;;;;;;5049491;28;20288;-51
2023/08/28 04:11:09;;;;;;;13.87;11.10;;;12.00;99.90;;;;;;5050120;28;20295;-53
2023/08/28 04:13:35;;;;;;;11.88;10.70;;;12.00;99.90;;;;;;5049245;28;20341;-52
2023/08/28 04:16:00;;;;;;;12.30;10.45;;;12.00;99.90;;;;;;5049851;28;20460;-54
2023/08/28 04:18:26;;;;;;;9.70;8.70;;;12.00;99.90;;;;;;5049326;28;20037;-51
2023/08/28 04:20:52;;;;;;;9.77;8.70;;;11.90;99.90;;;;;;5049600;28;20310;-51
2023/08/28 04:23:17;;;;;;;10.82;8.18;;;11.90;99.90;;;;;;5049917;28;20283;-51
2023/08/28 04:25:43;;;;;;;9.40;8.00;;;11.80;99.90;;;;;;5049735;28;20087;-51
2023/08/28 04:28:09;;;;;;;13.83;10.77;;;11.80;99.90;;;;;;5049393;28;20357;-52
2023/08/28 04:30:34;;;;;;;15.83;10.27;;;11.80;99.90;;;;;;5049376;28;20862;-50
2023/08/28 04:33:00;;;;;;;13.07;11.33;;;11.80;99.90;;;;;;5049640;28;20284;-50
2023/08/28 04:35:25;;;;;;;13.10;11.57;;;11.80;99.90;;;;;;5050220;28;20037;-50
2023/08/28 04:37:51;;;;;;;12.50;11.30;;;11.80;99.90;;;;;;5049503;28;20112;-53
2023/08/28 04:40:16;;;;;;;13.80;11.73;;;11.80;99.90;;;;;;5030420;28;20290;-53
2023/08/28 04:42:42;;;;;;;15.50;11.73;;;11.80;99.90;;;;;;5049730;28;20055;-50
2023/08/28 04:45:08;;;;;;;14.57;11.93;;;11.90;99.90;;;;;;5049234;28;20123;-51
2023/08/28 04:47:34;;;;;;;15.07;12.23;;;11.80;99.90;;;;;;5048937;28;20293;-51
2023/08/28 04:49:59;;;;;;;14.30;12.43;;;11.80;99.90;;;;;;5045815;28;20401;-55
2023/08/28 04:52:25;;;;;;;16.60;13.23;;;11.80;99.90;;;;;;5047146;28;20529;-51
2023/08/28 04:54:50;;;;;;;20.60;15.47;;;11.80;99.90;;;;;;5048894;28;20738;-51
2023/08/28 04:57:16;;;;;;;14.43;12.90;;;11.80;99.90;;;;;;5049121;28;20382;-53
2023/08/28 04:59:41;;;;;;;14.55;13.07;;;11.80;99.90;;;;;;5048459;28;20032;-50
2023/08/28 05:02:07;;;;;;;17.85;14.05;;;11.80;99.90;;;;;;5048066;28;20457;-53
2023/08/28 05:04:33;;;;;;;13.65;12.45;;;11.80;99.90;;;;;;5048894;28;20037;-50
2023/08/28 05:06:58;;;;;;;15.48;13.70;;;11.80;99.90;;;;;;5049209;28;20670;-53
2023/08/28 05:09:24;;;;;;;15.47;12.63;;;11.80;99.90;;;;;;5048155;28;20044;-51
2023/08/28 05:11:49;;;;;;;14.48;12.88;;;11.80;99.90;;;;;;5046279;28;20315;-55
2023/08/28 05:14:15;;;;;;;15.93;14.40;;;11.90;99.90;;;;;;5048347;28;20035;-51
2023/08/28 05:16:40;;;;;;;17.43;13.67;;;11.90;99.90;;;;;;5049143;28;20743;-51
2023/08/28 05:19:06;;;;;;;16.03;14.17;;;12.00;99.90;;;;;;5047954;28;20284;-50
2023/08/28 05:21:32;;;;;;;15.40;13.68;;;12.00;99.90;;;;;;5048994;28;20665;-50
2023/08/28 05:23:58;;;;;;;15.02;13.52;;;12.00;99.90;;;;;;5048534;28;20159;-50
2023/08/28 05:26:24;;;;;;;17.42;14.02;;;12.10;99.90;;;;;;5048887;28;20120;-56
2023/08/28 05:28:49;;;;;;;14.77;13.30;;;12.10;99.90;;;;;;5042255;28;20155;-54
2023/08/28 05:31:15;;;;;;;16.42;13.77;;;12.10;99.90;;;;;;5046114;28;20115;-50
2023/08/28 05:33:40;;;;;;;16.23;13.30;;;12.20;99.90;;;;;;5045094;28;20044;-50
2023/08/28 05:36:06;;;;;;;18.45;14.27;;;12.20;99.90;;;;;;5048693;28;20449;-53
2023/08/28 05:38:33;;;;;;;20.20;13.80;;;12.20;99.90;;;;;;5030077;28;20040;-53
2023/08/28 05:40:58;;;;;;;14.18;12.82;;;12.30;99.90;;;;;;5048594;28;20049;-53
2023/08/28 05:43:24;;;;;;;17.60;13.57;;;12.40;99.90;;;;;;5047678;28;20128;-53
2023/08/28 05:45:50;;;;;;;19.17;14.37;;;12.40;99.90;;;;;;5045117;28;20288;-53
2023/08/28 05:48:15;;;;;;;18.02;14.48;;;12.60;99.90;;;;;;5043164;28;20044;-52
2023/08/28 05:50:44;;;;;;;15.15;13.65;;;12.60;99.90;;;;;;5046837;28;20037;-53
2023/08/28 05:53:09;;;;;;;15.43;13.82;;;12.70;99.90;;;;;;5044680;28;20039;-50
2023/08/28 05:55:35;;;;;;;14.93;13.47;;;12.80;99.90;;;;;;5047611;28;20067;-53
2023/08/28 05:58:01;;;;;;;14.98;13.38;;;12.90;99.90;;;;;;5048104;28;20279;-50
2023/08/28 06:00:27;;;;;;;17.92;13.50;;;13.00;99.90;;;;;;5047405;28;20425;-53
2023/08/28 06:02:55;;;;;;;20.02;13.45;;;13.10;99.90;;;;;;5048355;28;20087;-54
2023/08/28 06:05:21;;;;;;;14.43;12.70;;;13.20;99.90;;;;;;5048197;28;20037;-51
2023/08/28 06:07:47;;;;;;;14.95;12.23;;;13.30;99.90;;;;;;5047987;28;20052;-50
2023/08/28 06:10:17;;;;;;;13.38;11.95;;;13.40;99.90;;;;;;5047636;28;20044;-52
2023/08/28 06:12:44;;;;;;;14.68;12.10;;;13.50;99.90;;;;;;5048201;28;20037;-51
2023/08/28 06:15:10;;;;;;;;;;;13.70;99.90;;;;;;5048166;28;20071;-51
2023/08/28 06:17:36;;;;;;;12.00;10.80;;;13.80;99.90;;;;;;5048405;28;20229;-53
2023/08/28 06:20:04;;;;;;;12.95;11.07;;;13.90;99.90;;;;;;5047690;28;20124;-51
2023/08/28 06:22:30;;;;;;;11.68;10.02;;;14.00;99.90;;;;;;5048150;28;20490;-51
2023/08/28 06:24:55;;;;;;;12.52;9.63;;;14.20;99.90;;;;;;5047736;28;20037;-51
2023/08/28 06:27:21;;;;;;;14.15;9.40;;;14.30;99.90;;;;;;5043754;28;20037;-53
2023/08/28 06:29:46;;;;;;;10.40;9.27;;;14.40;99.90;;;;;;5045246;28;20490;-54
2023/08/28 06:32:12;;;;;;;8.65;7.75;;;14.40;99.90;;;;;;5035783;28;20037;-55
2023/08/28 06:34:38;;;;;;;9.27;8.15;;;14.50;99.90;;;;;;5045715;28;20075;-51
2023/08/28 06:37:03;;;;;;;9.93;8.95;;;14.60;99.90;;;;;;5043235;28;20068;-53
2023/08/28 06:39:31;;;;;;;10.55;9.25;;;14.70;99.90;;;;;;5037241;28;20056;-51
2023/08/28 06:41:56;;;;;;;;;;;14.80;99.90;;;;;;5039684;28;20049;-53
2023/08/28 06:44:22;;;;;;;8.88;8.07;;;14.90;99.90;;;;;;5037830;28;21021;-52
2023/08/28 06:46:47;;;;;;;9.10;8.25;;;15.00;99.90;;;;;;5041197;28;20395;-53
2023/08/28 06:49:13;;;;;;;8.98;7.13;;;15.10;99.90;;;;;;5039759;28;20036;-53
2023/08/28 06:51:39;;;;;;;11.77;8.07;;;15.20;99.90;;;;;;5039177;28;20049;-52
2023/08/28 06:54:04;;;;;;;7.20;6.47;;;15.20;99.90;;;;;;5043551;28;20120;-53
2023/08/28 06:56:30;;;;;;;7.82;6.38;;;15.30;99.90;;;;;;5023939;28;20128;-51
2023/08/28 06:58:55;;;;;;;10.45;6.90;;;15.50;99.90;;;;;;5039261;28;20128;-52
2023/08/28 07:01:22;;;;;;;7.20;6.53;;;15.50;99.90;;;;;;5046233;28;20098;-54
2023/08/28 07:03:47;;;;;;;8.75;6.45;;;15.60;99.90;;;;;;5046765;28;20373;-52
2023/08/28 07:06:13;;;;;;;9.20;6.55;;;15.70;99.90;;;;;;5050038;28;20466;-55
2023/08/28 07:08:39;;;;;;;7.40;6.50;;;15.70;99.90;;;;;;5037885;28;20765;-51
2023/08/28 07:11:05;;;;;;;9.95;6.13;;;15.80;99.90;;;;;;5041108;28;20686;-51
2023/08/28 07:13:30;;;;;;;12.13;5.57;;;15.90;99.90;;;;;;5029396;28;20771;-56
2023/08/28 07:15:56;;;;;;;6.95;6.10;;;16.00;99.90;;;;;;5040006;28;20153;-52
2023/08/28 07:18:22;;;;;;;7.13;6.03;;;16.10;99.90;;;;;;5038952;28;20035;-54
2023/08/28 07:20:51;;;;;;;6.97;5.20;;;16.10;99.90;;;;;;5041394;28;20505;-54
2023/08/28 07:23:17;;;;;;;6.50;5.65;;;16.20;99.90;;;;;;5042583;28;20124;-54
2023/08/28 07:25:44;;;;;;;6.13;4.97;;;16.30;99.90;;;;;;5045677;28;20128;-52
2023/08/28 07:28:10;;;;;;;7.75;5.60;;;16.40;99.90;;;;;;5042271;28;20427;-54
2023/08/28 07:30:36;;;;;;;8.88;5.97;;;16.40;99.90;;;;;;5042585;28;20518;-51
2023/08/28 07:33:03;;;;;;;6.68;5.18;;;16.50;99.90;;;;;;5045136;28;20037;-51
2023/08/28 07:35:34;;;;;;;5.47;4.97;;;16.60;99.90;;;;;;5039507;28;20033;-51
2023/08/28 07:38:03;;;;;;;6.70;4.05;;;16.60;99.90;;;;;;5036748;28;20045;-54
2023/08/28 07:40:29;;;;;;;4.47;4.05;;;16.70;99.90;;;;;;5023119;28;20426;-52
2023/08/28 07:42:56;;;;;;;5.82;5.10;;;16.80;99.90;;;;;;5037922;28;20045;-54
2023/08/28 07:45:21;;;;;;;5.32;4.78;;;16.90;99.90;;;;;;5041811;28;20045;-51
2023/08/28 07:47:47;;;;;;;6.47;4.68;;;17.00;99.90;;;;;;5042393;28;20045;-55
2023/08/28 07:50:12;;;;;;;5.63;5.10;;;17.00;99.90;;;;;;5039887;28;20056;-53
2023/08/28 07:52:38;;;;;;;7.68;5.53;;;17.00;99.90;;;;;;5040171;28;20045;-53
2023/08/28 07:55:05;;;;;;;6.32;5.70;;;17.00;99.90;;;;;;5040497;28;20040;-53
2023/08/28 07:57:33;;;;;;;7.22;5.35;;;17.00;99.90;;;;;;5041366;28;20128;-51
2023/08/28 07:59:58;;;;;;;6.55;5.50;;;17.00;99.90;;;;;;5042221;28;20092;-54
2023/08/28 08:02:24;;;;;;;5.60;5.10;;;17.10;99.90;;;;;;5043803;28;20579;-55
2023/08/28 08:04:50;;;;;;;4.70;3.80;;;17.10;99.90;;;;;;5041781;28;20516;-51
2023/08/28 08:07:15;;;;;;;7.95;3.65;;;17.20;99.90;;;;;;5041569;28;20341;-53
2023/08/28 08:09:41;;;;;;;6.72;3.83;;;17.30;99.90;;;;;;5040886;28;20044;-51
2023/08/28 08:12:07;;;;;;;3.97;3.67;;;17.30;99.90;;;;;;5042031;28;20866;-56
2023/08/28 08:14:32;;;;;;;8.13;3.63;;;17.40;99.90;;;;;;5042482;28;20048;-51
2023/08/28 08:16:58;;;;;;;7.07;4.20;;;17.40;99.90;;;;;;5041535;28;20409;-51
2023/08/28 08:19:24;;;;;;;5.80;4.35;;;17.50;99.90;;;;;;5034773;28;20067;-53
2023/08/28 08:21:49;;;;;;;4.30;4.00;;;17.60;99.90;;;;;;5040912;28;20064;-56
2023/08/28 08:24:15;;;;;;;4.05;3.70;;;17.70;99.90;;;;;;5039119;28;20622;-57
2023/08/28 08:26:40;;;;;;;5.80;4.38;;;17.80;99.90;;;;;;5041465;28;20069;-51
2023/08/28 08:29:06;;;;;;;3.70;2.83;;;17.90;99.90;;;;;;5040471;28;20324;-54
2023/08/28 08:31:31;;;;;;;3.92;3.42;;;18.10;99.90;;;;;;5044150;28;20032;-51
2023/08/28 08:33:57;;;;;;;4.80;2.90;;;18.20;99.90;;;;;;5043423;28;20104;-51
2023/08/28 08:36:22;;;;;;;3.38;1.33;;;18.30;99.90;;;;;;5040773;28;20044;-53
2023/08/28 08:38:48;;;;;;;1.40;0.70;;;18.40;99.90;;;;;;5042027;28;20059;-54
2023/08/28 08:41:13;;;;;;;3.42;1.00;;;18.50;99.90;;;;;;5044418;28;20083;-51
2023/08/28 08:43:39;;;;;;;4.40;0.77;;;18.60;99.90;;;;;;5038052;28;20033;-52
2023/08/28 08:46:07;;;;;;;1.35;1.13;;;18.70;99.90;;;;;;5039470;28;20626;-55
2023/08/28 08:48:36;;;;;;;2.15;0.95;;;18.80;99.90;;;;;;5040814;28;20041;-57
2023/08/28 08:51:06;;;;;;;3.60;1.58;;;18.90;99.90;;;;;;5041169;28;20033;-51
2023/08/28 08:53:53;;;;;;;3.00;1.52;;;18.90;99.90;;;;;;5035132;28;20033;-51
2023/08/28 08:56:22;;;;;;;6.55;1.35;;;19.00;99.90;;;;;;5042537;28;20045;-53
2023/08/28 08:58:49;;;;;;;5.78;2.00;;;19.10;99.90;;;;;;5038729;28;20187;-55
2023/08/28 09:01:15;;;;;;;3.75;1.38;;;19.20;99.90;;;;;;5042566;28;20040;-51
2023/08/28 09:03:42;;;;;;;;;;;19.40;99.90;;;;;;5043389;28;20075;-54
2023/08/28 09:06:09;;;;;;;1.60;1.15;;;19.50;99.90;;;;;;5042237;28;20308;-51
2023/08/28 09:08:36;;;;;;;2.42;1.27;;;19.60;99.90;;;;;;5043630;28;20082;-51
2023/08/28 09:11:04;;;;;;;5.32;0.90;;;19.60;99.90;;;;;;5041820;28;20105;-55
2023/08/28 09:13:30;;;;;;;1.48;0.70;;;19.80;99.90;;;;;;5038288;28;20041;-53
2023/08/28 09:15:56;;;;;;;2.17;0.55;;;20.00;99.90;;;;;;5039004;28;20580;-53
2023/08/28 09:18:25;;;;;;;1.40;0.40;;;20.20;99.90;;;;;;5037017;28;20071;-54
2023/08/28 09:21:09;;;;;;;1.42;0.47;;;20.40;99.90;;;;;;5037641;28;20044;-54
2023/08/28 09:23:42;;;;;;;1.58;0.40;;;20.50;99.90;;;;;;5023761;28;20195;-57
2023/08/28 09:26:07;;;;;;;0.52;0.30;;;20.60;99.90;;;;;;5042272;28;20049;-54
2023/08/28 09:28:33;;;;;;;0.82;0.20;;;20.50;99.90;;;;;;5041436;28;20051;-53
2023/08/28 09:30:58;;;;;;;;;;;20.60;99.90;;;;;;5040136;28;20041;-53
2023/08/28 09:33:24;;;;;;;0.57;0.20;;;20.60;99.90;;;;;;5041532;28;20324;-56
2023/08/28 09:35:50;;;;;;;;;;;20.70;99.90;;;;;;5043339;28;20075;-54
2023/08/28 09:38:15;;;;;;;2.80;0.60;;;20.70;99.90;;;;;;5042677;28;20015;-54
2023/08/28 09:40:41;;;;;;;;;;;20.80;99.90;;;;;;5042514;28;20044;-55
2023/08/28 09:43:15;;;;;;;0.50;0.30;;;20.80;99.90;;;;;;5040941;28;19978;-52
2023/08/28 09:45:42;;;;;;;0.95;0.17;;;20.80;99.90;;;;;;5038112;28;20588;-55
2023/08/28 09:48:08;;;;;;;1.25;0.30;;;20.70;99.90;;;;;;5039514;28;20037;-53
2023/08/28 09:50:34;;;;;;;;;;;20.80;99.90;;;;;;5042273;28;20064;-55
2023/08/28 09:53:10;;;;;;;1.83;0.30;;;20.80;99.90;;;;;;5038144;28;20032;-57
2023/08/28 09:55:53;;;;;;;3.00;0.50;;;20.90;99.90;;;;;;5035358;28;20091;-52
2023/08/28 09:58:23;;;;;;;0.45;0.22;;;21.00;99.90;;;;;;5040832;28;20510;-54
2023/08/28 10:00:50;;;;;;;2.00;0.20;;;21.20;99.90;;;;;;5040992;28;20124;-56
2023/08/28 10:03:17;;;;;;;2.67;0.40;;;21.10;99.90;;;;;;5040369;28;20044;-56
2023/08/28 10:05:44;;;;;;;1.45;0.22;;;21.00;99.90;;;;;;5039791;28;20033;-55
2023/08/28 10:08:15;;;;;;;1.23;0.25;;;20.80;99.90;;;;;;5041463;28;20037;-51
2023/08/28 10:10:45;;;;;;;0.93;0.32;;;20.80;99.90;;;;;;5041506;28;20757;-52
2023/08/28 10:13:13;;;;;;;4.22;0.30;;;21.00;99.90;;;;;;5038892;28;20071;-54
2023/08/28 10:15:51;;;;;;;1.70;0.28;;;21.10;99.90;;;;;;5038080;28;20098;-54
2023/08/28 10:18:40;;;;;;;0.50;0.20;;;21.20;99.90;;;;;;5037744;28;20037;-56
2023/08/28 10:21:06;;;;;;;0.82;0.30;;;21.30;99.90;;;;;;5036953;28;20453;-55
2023/08/28 10:23:33;;;;;;;1.08;0.28;;;21.40;99.90;;;;;;5039746;28;20044;-52
2023/08/28 10:26:00;;;;;;;3.22;0.20;;;21.50;99.90;;;;;;5042523;28;20068;-53
2023/08/28 10:28:28;;;;;;;0.50;0.20;;;21.60;99.90;;;;;;5040830;28;20294;-54
2023/08/28 10:30:54;;;;;;;0.73;0.10;;;21.70;99.90;;;;;;5039199;28;20048;-55
2023/08/28 10:33:21;;;;;;;2.15;0.30;;;21.80;99.90;;;;;;5034038;28;20056;-52
2023/08/28 10:35:51;;;;;;;0.73;0.17;;;22.00;99.90;;;;;;5040801;28;20116;-52
2023/08/28 10:38:20;;;;;;;3.72;0.65;;;22.00;99.90;;;;;;5041723;28;20078;-54
2023/08/28 10:40:51;;;;;;;2.25;0.30;;;21.80;99.90;;;;;;5045136;28;20068;-51
2023/08/28 10:43:21;;;;;;;0.52;0.17;;;21.70;99.90;;;;;;5044855;28;20410;-54
2023/08/28 10:45:49;;;;;;;2.45;0.15;;;21.80;99.90;;;;;;5043307;28;20037;-57
2023/08/28 10:48:17;;;;;;;1.67;0.22;;;21.80;99.90;;;;;;5041778;28;20045;-51
2023/08/28 10:50:44;;;;;;;2.08;0.52;;;21.80;99.90;;;;;;5045472;28;20592;-55
2023/08/28 10:53:16;;;;;;;1.25;0.10;;;21.90;99.90;;;;;;5045123;28;20029;-53
2023/08/28 10:55:56;;;;;;;1.33;0.22;;;22.00;99.90;;;;;;5043072;28;20029;-53
2023/08/28 10:58:22;;;;;;;1.50;0.20;;;22.10;99.90;;;;;;5044932;28;20041;-52
2023/08/28 11:00:48;;;;;;;1.35;0.17;;;22.10;99.90;;;;;;5045374;28;20041;-57
2023/08/28 11:03:18;;;;;;;;;;;22.10;99.90;;;;;;5045820;28;20028;-55
2023/08/28 11:05:44;;;;;;;0.82;0.10;;;22.10;99.90;;;;;;5041780;28;20259;-54
2023/08/28 11:08:13;;;;;;;3.45;0.17;;;22.20;99.90;;;;;;5044010;28;20047;-52
2023/08/28 11:10:44;;;;;;;2.20;0.20;;;22.30;99.90;;;;;;5041947;28;20052;-54
2023/08/28 11:13:18;;;;;;;1.38;0.30;;;22.40;99.90;;;;;;5039861;28;20653;-54
2023/08/28 11:15:44;;;;;;;2.17;0.40;;;22.50;99.90;;;;;;5039905;28;20038;-58
2023/08/28 11:18:18;;;;;;;;;;;22.40;99.90;;;;;;5040506;28;20097;-52
2023/08/28 11:20:51;;;;;;;2.10;0.45;;;22.40;99.90;;;;;;5039996;28;19994;-52
2023/08/28 11:23:34;;;;;;;0.52;0.15;;;22.30;99.90;;;;;;5038256;28;20095;-54
2023/08/28 11:26:19;;;;;;;1.52;0.20;;;22.30;99.90;;;;;;5033787;28;20037;-58
2023/08/28 11:28:50;;;;;;;1.05;0.20;;;22.40;99.90;;;;;;5029619;28;20513;-55
2023/08/28 11:31:17;;;;;;;1.30;0.20;;;22.40;99.90;;;;;;5041202;28;20037;-54
2023/08/28 11:33:49;;;;;;;1.95;0.20;;;22.50;99.90;;;;;;5042056;28;20037;-56
2023/08/28 11:36:17;;;;;;;0.50;0.20;;;22.50;99.90;;;;;;5041223;28;20072;-56
2023/08/28 11:38:44;;;;;;;1.85;0.20;;;22.60;99.90;;;;;;5042358;28;20075;-54
2023/08/28 11:41:10;;;;;;;0.65;0.22;;;22.70;99.90;;;;;;5042968;28;20068;-54
2023/08/28 11:43:43;;;;;;;0.40;0.20;;;22.60;99.90;;;;;;5041642;28;20132;-54
2023/08/28 11:46:10;;;;;;;0.30;0.10;;;22.60;99.90;;;;;;5040022;28;20044;-56
2023/08/28 11:48:37;;;;;;;2.35;0.10;;;22.60;99.90;;;;;;5043230;28;20091;-57
2023/08/28 11:51:04;;;;;;;0.65;0.10;;;22.60;99.90;;;;;;5040854;28;20063;-53
2023/08/28 11:53:40;;;;;;;0.85;0.15;;;22.50;99.90;;;;;;5042065;28;20489;-58
2023/08/28 11:56:06;;;;;;;4.07;0.13;;;22.60;99.90;;;;;;5043143;28;20032;-53
2023/08/28 11:58:33;;;;;;;1.33;0.17;;;22.70;99.90;;;;;;5042133;28;20045;-55
2023/08/28 12:01:01;;;;;;;1.08;0.20;;;22.80;99.90;;;;;;5042513;28;20048;-56
2023/08/28 12:03:27;;;;;;;1.52;0.10;;;22.90;99.90;;;;;;5041661;28;20033;-55
2023/08/28 12:06:06;;;;;;;3.15;0.20;;;23.00;99.90;;;;;;5043357;28;20082;-56
2023/08/28 12:08:41;;;;;;;0.52;0.10;;;23.20;99.90;;;;;;5041702;28;20041;-56
2023/08/28 12:11:08;;;;;;;3.05;0.32;;;23.40;99.90;;;;;;5044211;28;20040;-57
2023/08/28 12:13:35;;;;;;;0.98;0.10;;;23.60;99.90;;;;;;5043165;28;20431;-55
2023/08/28 12:16:19;;;;;;;1.92;0.08;;;23.70;99.70;;;;;;5042629;28;20481;-57
2023/08/28 12:18:50;;;;;;;1.85;0.10;;;23.70;99.10;;;;;;5040654;28;20147;-56
2023/08/28 12:21:17;;;;;;;1.13;0.10;;;23.70;99.20;;;;;;5040455;28;20040;-57
2023/08/28 12:23:51;;;;;;;0.45;0.13;;;23.50;98.70;;;;;;5018106;28;20576;-55
2023/08/28 12:26:18;;;;;;;2.17;0.17;;;23.40;99.00;;;;;;5038887;28;20180;-58
2023/08/28 12:28:45;;;;;;;0.60;0.20;;;23.40;99.40;;;;;;5037808;28;20052;-55
2023/08/28 12:31:11;;;;;;;3.47;0.20;;;23.50;99.60;;;;;;5042293;28;20049;-54
2023/08/28 12:33:44;;;;;;;2.40;0.20;;;23.40;98.80;;;;;;5042296;28;20106;-52
2023/08/28 12:36:10;;;;;;;0.20;0.10;;;23.40;98.90;;;;;;5042077;28;20040;-54
2023/08/28 12:38:50;;;;;;;0.30;0.08;;;23.50;99.50;;;;;;5042857;28;20032;-53
2023/08/28 12:41:17;;;;;;;2.15;0.10;;;23.70;99.00;;;;;;5042517;28;20049;-53
2023/08/28 12:43:45;;;;;;;1.05;0.10;;;23.70;99.20;;;;;;5041150;28;20494;-54